• Join FlightAware (Why Join?)
  • Login
  • US Flag 
01:36AM EDT


 

Airport Tracker/Info


-or-


 

Live Flight TrackerFlight Track Log ✈ EJA583 ✈ 19-Sep-2013 ✈ KCOT - KHOU

Flight Track Log - Related Links

Times and Time Zones

All times are in EDT time to prevent confusion due to time zone crossing. See the EJA583 flight status page for this flight to view local times or setup timezone preferences in your user account.

Time Position Orientation Groundspeed Altitude Reporting Facility
EDT Latitude Longitude Course Direction KTS MPH feet Rate Location/Type
09:35AM 28.4381 -99.1875 71° East 198 228 2,300  Level Houston Center
09:36AM 28.6391 -98.6434 67° East  Level Estimated
09:36AM 28.4650 -99.1225 65° Northeast 252 290 3,000  Level Houston Center
09:37AM 28.6686 -98.5472 71° East  Level FlightAware Approximate
09:37AM 28.4958 -99.0553 62° Northeast 244 281 4,200  Level Houston Center
09:38AM 28.6987 -98.4511 72° East  Level Estimated
09:38AM 28.5303 -98.9875 60° Northeast 245 282 7,700  Level Houston Center
09:39AM 28.7276 -98.3546 71° East  Level FlightAware Approximate
09:39AM 28.5686 -98.9147 59° Northeast 260 299 10,100  Level Houston Center
09:40AM 28.7565 -98.2579 71° East  Level FlightAware Approximate
09:40AM 28.6108 -98.8272 61° Northeast 303 349 11,700  Level Houston Center
09:41AM 28.6514 -98.7322 64° Northeast 326 375 13,200 1,620 Climbing Houston Center
09:42AM 28.6864 -98.6033 73° East 350 403 15,100 1,620 Climbing Houston Center
09:43AM 28.6772 -98.4939 95° East 380 437 16,600 1,440 Climbing Houston Center
09:44AM 28.6389 -98.3900 113° Southeast 359 413 18,100 1,440 Climbing Houston Center
09:45AM 28.6008 -98.2889 113° Southeast 359 413 19,600 1,440 Climbing Houston Center
09:46AM 28.5525 -98.1861 118° Southeast 374 430 21,100 1,380 Climbing Houston Center
09:47AM 28.4861 -98.1028 132° Southeast 361 415 22,500 900 Climbing Houston Center
09:48AM 28.4467 -97.9692 109° East 400 460 23,000 240 Climbing Houston Center
09:49AM 28.4975 -97.8503 64° Northeast 419 482 23,000  Level Houston Center
09:50AM 28.5514 -97.7328 62° Northeast 419 482 23,000  Level Houston Center
09:51AM 28.6044 -97.6147 63° Northeast 420 483 23,000  Level Houston Center
09:52AM 28.6572 -97.4975 63° Northeast 419 482 23,000  Level Houston Center
09:53AM 28.7103 -97.3811 63° Northeast 417 480 23,000  Level Houston Center
09:54AM 28.7733 -97.2403 63° Northeast 417 480 23,000  Level Houston Center
09:55AM 28.8250 -97.1233 63° Northeast 416 479 23,000  Level Houston Center
09:56AM 28.8778 -97.0050 63° Northeast 419 482 23,000  Level Houston Center
09:57AM 28.9297 -96.8872 63° Northeast 420 483 23,000  Level Houston Center
09:58AM 28.9819 -96.7703 63° Northeast 418 481 23,000 -540 Level Houston Center
09:59AM 29.0428 -96.6297 64° Northeast 416 479 22,000 -1,380 Descending Houston Center
10:00AM 29.0953 -96.5133 63° Northeast 416 479 20,200 -1,740 Descending Houston Center
10:01AM 29.1458 -96.3978 63° Northeast 412 474 18,500 -1,800 Descending Houston Center
10:02AM 29.1956 -96.2864 63° Northeast 402 463 16,600 -2,280 Descending Houston Center
10:03AM 29.2144 -96.2444 63° Northeast 385 443 15,500 -2,460 Descending Houston Center
10:03AM 29.2397 -96.1825 65° Northeast 373 429 14,100 -2,460 Descending Houston Center
10:04AM 29.2614 -96.1314 64° Northeast 358 412 13,000 -2,040 Descending Houston Center
10:05AM 29.2931 -96.0594 63° Northeast 362 417 12,000 -1,020 Descending Houston Center
10:05AM 29.3094 -96.0328 55° Northeast 358 412 12,000 -540 Level Houston Center
10:06AM 29.3464 -95.9739 54° Northeast 356 410 11,500 -780 Descending Houston Center
10:06AM 29.3667 -95.9422 54° Northeast 355 409 11,200 -1,200 Descending Houston Center
10:07AM 29.4047 -95.8817 54° Northeast 356 410 10,300 -1,500 Descending Houston Center
10:07AM 29.4278 -95.8489 51° Northeast 328 377 9,700 -1,500 Descending Houston Center
10:08AM 29.4531 -95.8022 58° Northeast 306 352 8,800 -1,500 Descending Houston Center
10:08AM 29.4689 -95.7675 62° Northeast 286 329 8,200 -1,800 Descending Houston Center
10:09AM 29.4808 -95.7000 78° East 283 326 7,000 -1,620 Descending Houston Center
10:09AM 29.4797 -95.6797 94° East 271 312 6,600 -1,500 Descending Houston Center
10:10AM 29.4844 -95.6175 85° East 265 305 5,500 -1,500 Descending Houston Center
10:10AM 29.4872 -95.5997 80° East 248 285 5,100 -1,440 Descending Houston Center
10:11AM 29.5003 -95.5392 76° East 255 293 4,000 -1,620 Descending Houston Center
10:11AM 29.5089 -95.5133 69° East 266 306 3,500 -840 Descending Houston Center
10:12AM 29.5300 -95.4458 70° East 219 252 3,000 -540 Descending Houston Center
10:13AM 29.5447 -95.4019 69° East 218 251 2,500 -720 Descending Houston Center
10:13AM 29.5517 -95.3833 67° East 208 239 2,300 -600 Descending Houston Center
10:14AM 29.5850 -95.3464 44° Northeast 195 224 1,900 -480 Descending Houston Center
10:14AM 29.5858 -95.3431 74° East 184 212 1,900 -1,260 Level Houston Center
10:15AM 29.6217 -95.3061 42° Northeast 186 214 600 -1,260 Descending Houston Center
10:15AM 29.6258 -95.3000 52° Northeast 151 174 500 21,660 Descending Houston Center
10:16AM 29.6506 -95.2719 45° Northeast 160 184 23,000 25,440 Climbing Houston Center
10:18AM 29.6454 -95.2789 49° Northeast  Level Estimated